Startpagina
METAR-TAF:

METAR-TAF

Vliegvelden :

Koror, Babelthuap Island, Palau

Roman Tmetuchl International Airport

breedte: 07-22N, lengte: 134-32E, hoogte: 54 m

Actueel weer

Dit bericht is 40 minuten geleden gemaakt, om 18:50 UTC
Wind 4 kt uit het zuidwesten
Temperatuur 28°C
Vochtigheid 84%
Druk 1008 hPa
Zicht: 22.5 km
Verspreide wolken op 1600 ft
Gebroken wolken op 30000 ft

METAR: PTRO 211850Z 23004KT 14SM SCT016 BKN300 28/25 A2977

Tijdstip: 04:30 (19:30 UTC)

Verwachting

Dit bericht is 2 uur en het 8 minuten geleden gemaakt, om 17:22 UTC
Verwachting geldig van 21 om 18 UTC tot 22 om 18 UTC
Wind 4 kt uit het zuidwesten
Zicht: 10 km
Verspreide wolken op 1600 ft
Gebroken wolken op 30000 ft
buien in de omgeving

TAF: PTRO 211722Z 2118/2218 23004KT P6SM VCSH SCT016 BKN300

Waarnemingen en weersverwachtingen van meer dan 4000 vliegvelden (METAR en TAF).

De beschikbare stations zijn de gele en rode punten op de kaart.

Ga met uw muis naar het station om de naam te zien.

Klik dan om waarnemingen en weersverwachtingen te zien.

kaart wijzigen: klik op de groene knoppen met een zwart kruis om in te zoomen, op de groene knop met een streepje om uit te zoomen of op de groene pijlen voor aangrenzende kaarten.


METAR-TAF: